createdAt,value
2022-12-17T00:02:41.889Z,101866.00
2022-12-17T00:05:27.558Z,101881.44
2022-12-17T00:08:17.617Z,101881.28
2022-12-17T00:11:03.038Z,101873.91
2022-12-17T00:13:48.546Z,101868.84
2022-12-17T00:16:34.930Z,101858.84
2022-12-17T00:19:20.214Z,101872.00
2022-12-17T00:22:05.367Z,101863.09
2022-12-17T00:24:50.255Z,101869.94
2022-12-17T00:27:35.226Z,101866.75
2022-12-17T00:30:20.707Z,101867.13
2022-12-17T00:33:06.111Z,101861.19
2022-12-17T00:35:51.217Z,101860.50
2022-12-17T00:38:37.637Z,101855.56
2022-12-17T00:41:23.032Z,101861.50
2022-12-17T00:44:08.332Z,101867.59
2022-12-17T00:46:53.524Z,101860.00
2022-12-17T00:49:38.656Z,101860.00
2022-12-17T00:52:24.369Z,101861.97
2022-12-17T00:55:09.799Z,101856.22
2022-12-17T00:57:55.258Z,101857.22
2022-12-17T01:00:42.102Z,101871.81
2022-12-17T01:03:30.366Z,101866.63
2022-12-17T01:06:19.567Z,101868.00
2022-12-17T01:09:05.431Z,101868.69
2022-12-17T01:11:50.615Z,101855.75
2022-12-17T01:14:37.346Z,101850.63
2022-12-17T01:17:39.167Z,101850.63
2022-12-17T01:20:25.118Z,101839.00
2022-12-17T01:23:10.711Z,101833.47
2022-12-17T01:25:56.382Z,101846.91
2022-12-17T01:28:42.731Z,101851.28
2022-12-17T01:31:34.667Z,101844.59
2022-12-17T01:34:20.837Z,101849.94
2022-12-17T01:37:07.673Z,101861.38
2022-12-17T01:39:53.003Z,101857.53
2022-12-17T01:42:38.117Z,101865.94
2022-12-17T01:45:24.263Z,101869.69
2022-12-17T01:48:13.630Z,101874.22
2022-12-17T01:51:08.497Z,101881.81
2022-12-17T01:54:00.011Z,101892.28
2022-12-17T01:56:45.295Z,101887.44
2022-12-17T01:59:31.492Z,101872.25
2022-12-17T02:02:17.086Z,101873.41
2022-12-17T02:05:02.681Z,101875.41
2022-12-17T02:08:00.171Z,101887.72
2022-12-17T02:10:59.646Z,101887.84
2022-12-17T02:13:50.842Z,101888.81
2022-12-17T02:16:43.948Z,101892.47
2022-12-17T02:20:00.363Z,101883.25
2022-12-17T02:23:23.990Z,101880.88
2022-12-17T02:26:19.451Z,101870.72
2022-12-17T02:29:08.351Z,101888.03
2022-12-17T02:31:59.112Z,101890.00
2022-12-17T02:34:44.523Z,101891.66
2022-12-17T02:37:29.508Z,101892.63
2022-12-17T02:40:14.871Z,101890.75
2022-12-17T02:43:01.609Z,101901.16
2022-12-17T02:45:46.813Z,101900.34
2022-12-17T02:48:32.039Z,101903.59
2022-12-17T02:51:17.726Z,101915.47
2022-12-17T02:54:04.643Z,101914.47
2022-12-17T02:56:49.920Z,101907.56
2022-12-17T02:59:34.938Z,101897.91
2022-12-17T03:02:20.520Z,101889.19
2022-12-17T03:05:27.593Z,101889.19
2022-12-17T03:08:11.278Z,101887.63
2022-12-17T03:10:56.626Z,101890.00
2022-12-17T03:13:46.488Z,101881.31
2022-12-17T03:16:37.407Z,101884.94
2022-12-17T03:19:23.397Z,101886.81
2022-12-17T03:22:08.511Z,101886.34
2022-12-17T03:24:53.807Z,101890.25
2022-12-17T03:27:38.893Z,101889.66
2022-12-17T03:30:24.712Z,101874.53
2022-12-17T03:33:10.147Z,101877.38
2022-12-17T03:35:55.447Z,101874.91
2022-12-17T03:38:40.904Z,101885.09
2022-12-17T03:41:26.382Z,101877.38
2022-12-17T03:44:11.577Z,101877.47
2022-12-17T03:46:56.478Z,101878.47
2022-12-17T03:49:41.788Z,101879.47
2022-12-17T03:52:27.190Z,101876.34
2022-12-17T03:55:12.394Z,101875.16
2022-12-17T03:58:02.026Z,101879.00
2022-12-17T04:00:46.896Z,101870.75
2022-12-17T04:03:32.243Z,101869.25
2022-12-17T04:06:17.238Z,101860.91
2022-12-17T04:09:02.409Z,101863.69
2022-12-17T04:11:47.653Z,101865.66
2022-12-17T04:14:32.752Z,101881.44
2022-12-17T04:17:18.086Z,101880.84
2022-12-17T04:20:03.051Z,101867.44
2022-12-17T04:22:48.383Z,101867.81
2022-12-17T04:25:33.562Z,101860.53
2022-12-17T04:28:19.058Z,101851.50
2022-12-17T04:31:04.170Z,101845.63
2022-12-17T04:33:49.594Z,101844.13
2022-12-17T04:36:34.649Z,101847.69
2022-12-17T04:39:20.067Z,101850.16
2022-12-17T04:42:05.368Z,101855.22
2022-12-17T04:44:51.490Z,101849.03
2022-12-17T04:47:36.507Z,101854.06
2022-12-17T04:50:21.962Z,101856.63
2022-12-17T04:53:07.165Z,101850.78
2022-12-17T04:55:52.386Z,101851.84
2022-12-17T04:58:37.894Z,101851.31
2022-12-17T05:01:23.085Z,101851.59
2022-12-17T05:04:08.102Z,101850.06
2022-12-17T05:06:53.498Z,101845.09
2022-12-17T05:09:38.635Z,101847.94
2022-12-17T05:12:24.052Z,101844.66
2022-12-17T05:15:09.164Z,101836.94
2022-12-17T05:17:55.471Z,101846.56
2022-12-17T05:20:40.540Z,101848.59
2022-12-17T05:23:27.331Z,101855.00
2022-12-17T05:26:38.950Z,101844.13
2022-12-17T05:29:24.611Z,101854.69
2022-12-17T05:32:09.858Z,101854.78
2022-12-17T05:34:55.395Z,101845.34
2022-12-17T05:37:42.494Z,101848.91
2022-12-17T05:40:28.371Z,101858.41
2022-12-17T05:43:19.463Z,101853.53
2022-12-17T05:46:05.227Z,101858.94
2022-12-17T05:48:53.231Z,101865.22
2022-12-17T05:51:39.361Z,101857.19
2022-12-17T05:54:25.580Z,101865.59
2022-12-17T05:57:11.602Z,101862.00
2022-12-17T05:59:56.980Z,101854.03
2022-12-17T06:02:42.555Z,101853.06
2022-12-17T06:05:27.783Z,101851.97
2022-12-17T06:08:20.339Z,101857.72
2022-12-17T06:11:05.726Z,101859.50
2022-12-17T06:13:50.786Z,101853.38
2022-12-17T06:16:36.514Z,101866.22
2022-12-17T06:19:21.935Z,101856.72
2022-12-17T06:22:12.038Z,101859.03
2022-12-17T06:25:01.989Z,101858.72
2022-12-17T06:27:50.412Z,101866.22
2022-12-17T06:30:35.951Z,101860.78
2022-12-17T06:33:29.648Z,101865.63
2022-12-17T06:36:21.988Z,101872.19
2022-12-17T06:39:08.263Z,101869.06
2022-12-17T06:42:00.485Z,101868.63
2022-12-17T06:44:51.959Z,101868.91
2022-12-17T06:47:38.461Z,101863.06
2022-12-17T06:50:27.005Z,101870.13
2022-12-17T06:53:25.942Z,101876.53
2022-12-17T06:56:11.553Z,101868.13
2022-12-17T06:58:56.934Z,101876.97
2022-12-17T07:01:42.722Z,101883.09
2022-12-17T07:04:31.498Z,101885.75
2022-12-17T07:07:16.922Z,101877.94
2022-12-17T07:10:02.386Z,101881.25
2022-12-17T07:12:47.907Z,101875.06
2022-12-17T07:15:37.611Z,101884.28
2022-12-17T07:18:23.142Z,101878.78
2022-12-17T07:21:12.533Z,101890.63
2022-12-17T07:23:57.836Z,101887.81
2022-12-17T07:26:43.086Z,101893.66
2022-12-17T07:29:28.585Z,101902.97
2022-12-17T07:32:13.498Z,101894.13
2022-12-17T07:35:01.573Z,101907.81
2022-12-17T07:37:46.939Z,101907.66
2022-12-17T07:40:32.124Z,101907.50
2022-12-17T07:43:17.232Z,101912.69
2022-12-17T07:46:02.469Z,101896.19
2022-12-17T07:48:47.911Z,101900.41
2022-12-17T07:51:33.205Z,101898.66
2022-12-17T07:54:20.985Z,101894.38
2022-12-17T07:57:06.054Z,101901.34
2022-12-17T07:59:51.399Z,101899.81
2022-12-17T08:02:36.790Z,101895.69
2022-12-17T08:05:22.327Z,101899.16
2022-12-17T08:08:07.401Z,101903.56
2022-12-17T08:10:52.746Z,101894.19
2022-12-17T08:13:38.928Z,101891.56
2022-12-17T08:16:24.955Z,101892.56
2022-12-17T08:19:10.336Z,101901.38
2022-12-17T08:21:55.282Z,101894.47
2022-12-17T08:24:43.225Z,101892.94
2022-12-17T08:27:29.032Z,101890.34
2022-12-17T08:30:14.576Z,101896.59
2022-12-17T08:32:59.572Z,101904.59
2022-12-17T08:35:45.237Z,101900.63
2022-12-17T08:38:30.834Z,101903.72
2022-12-17T08:41:19.326Z,101902.38
2022-12-17T08:44:04.535Z,101901.16
2022-12-17T08:46:50.036Z,101904.22
2022-12-17T08:49:34.855Z,101899.44
2022-12-17T08:52:20.516Z,101908.56
2022-12-17T08:55:05.966Z,101911.69
2022-12-17T08:57:50.910Z,101905.31
2022-12-17T09:00:36.527Z,101910.88
2022-12-17T09:03:22.321Z,101913.88
2022-12-17T09:06:07.720Z,101923.59
2022-12-17T09:08:52.762Z,101903.13
2022-12-17T09:11:38.314Z,101896.34
2022-12-17T09:14:25.654Z,101897.63
2022-12-17T09:17:12.068Z,101892.69
2022-12-17T09:19:57.747Z,101888.63
2022-12-17T09:22:43.227Z,101881.16
2022-12-17T09:25:31.159Z,101875.34
2022-12-17T09:28:20.273Z,101868.69
2022-12-17T09:31:06.374Z,101866.28
2022-12-17T09:33:55.110Z,101869.09
2022-12-17T09:36:50.893Z,101861.47
2022-12-17T09:39:36.407Z,101866.78
2022-12-17T09:43:17.376Z,101861.81
2022-12-17T09:46:29.331Z,101870.59
2022-12-17T09:49:22.614Z,101874.19
2022-12-17T09:52:07.939Z,101870.88
2022-12-17T09:55:02.247Z,101871.00
2022-12-17T09:57:54.593Z,101865.94
2022-12-17T10:00:45.527Z,101865.25
2022-12-17T10:03:39.399Z,101859.31
2022-12-17T10:06:42.799Z,101858.56
2022-12-17T10:09:36.847Z,101853.56
2022-12-17T10:12:32.304Z,101856.31
2022-12-17T10:15:17.498Z,101856.44
2022-12-17T10:18:03.265Z,101853.97
2022-12-17T10:20:57.732Z,101857.59
2022-12-17T10:23:48.295Z,101847.31
2022-12-17T10:26:42.794Z,101854.34
2022-12-17T10:29:47.329Z,101860.53
2022-12-17T10:32:33.842Z,101850.28
2022-12-17T10:35:37.476Z,101837.38
2022-12-17T10:38:42.515Z,101837.47
2022-12-17T10:41:48.400Z,101838.41
2022-12-17T10:44:45.213Z,101843.69
2022-12-17T10:47:32.906Z,101841.16
2022-12-17T10:50:20.912Z,101834.28
2022-12-17T10:53:07.962Z,101841.31
2022-12-17T10:55:54.872Z,101848.38
2022-12-17T10:58:43.636Z,101837.19
2022-12-17T11:01:36.682Z,101838.94
2022-12-17T11:04:21.910Z,101838.09
2022-12-17T11:07:09.798Z,101838.09
2022-12-17T11:10:09.172Z,101844.25
2022-12-17T11:12:57.749Z,101840.69
2022-12-17T11:16:20.201Z,101850.19
2022-12-17T11:19:17.809Z,101837.19
2022-12-17T11:22:07.795Z,101835.38
2022-12-17T11:25:04.800Z,101825.88
2022-12-17T11:28:01.506Z,101820.63
2022-12-17T11:30:47.609Z,101812.84
2022-12-17T11:33:40.456Z,101813.72
2022-12-17T11:36:48.294Z,101810.34
2022-12-17T11:39:44.034Z,101800.88
2022-12-17T11:42:52.257Z,101800.09
2022-12-17T11:45:54.274Z,101793.25
2022-12-17T11:48:39.767Z,101796.84
2022-12-17T11:51:41.673Z,101788.25
2022-12-17T11:54:50.193Z,101777.06
2022-12-17T11:58:09.549Z,101785.91
2022-12-17T12:01:17.844Z,101792.00
2022-12-17T12:04:19.215Z,101786.03
2022-12-17T12:07:25.650Z,101805.13
2022-12-17T12:10:28.517Z,101821.56
2022-12-17T12:13:13.942Z,101818.09
2022-12-17T12:16:14.984Z,101808.66
2022-12-17T12:19:24.820Z,101805.31
2022-12-17T12:22:30.483Z,101801.97
2022-12-17T12:25:38.828Z,101797.75
2022-12-17T12:28:38.613Z,101794.38
2022-12-17T12:31:52.995Z,101780.63
2022-12-17T12:34:45.908Z,101790.38
2022-12-17T12:37:34.013Z,101802.59
2022-12-17T12:40:39.586Z,101818.44
2022-12-17T12:43:36.528Z,101798.59
2022-12-17T12:46:33.094Z,101781.34
2022-12-17T12:49:48.178Z,101764.13
2022-12-17T12:52:39.791Z,101734.75
2022-12-17T12:55:25.516Z,101740.91
2022-12-17T12:58:20.648Z,101747.16
2022-12-17T13:01:05.666Z,101750.75
2022-12-17T13:03:54.682Z,101742.16
2022-12-17T13:06:42.167Z,101774.41
2022-12-17T13:09:18.183Z,101772.72
2022-12-17T13:11:59.839Z,101780.59
2022-12-17T13:14:31.946Z,101772.81
2022-12-17T13:17:05.928Z,101760.66
2022-12-17T13:19:41.613Z,101763.28
2022-12-17T13:22:23.651Z,101766.75
2022-12-17T13:24:53.654Z,101770.31
2022-12-17T13:27:35.243Z,101771.16
2022-12-17T13:30:37.847Z,101761.63
2022-12-17T13:33:41.814Z,101774.66
2022-12-17T13:36:29.926Z,101775.59
2022-12-17T13:39:24.416Z,101779.97
2022-12-17T13:41:58.190Z,101787.84
2022-12-17T13:44:36.233Z,101785.25
2022-12-17T13:47:04.029Z,101792.19
2022-12-17T13:49:31.965Z,101787.88
2022-12-17T13:52:17.114Z,101794.81
2022-12-17T13:54:43.967Z,101791.25
2022-12-17T13:57:23.162Z,101783.41
2022-12-17T13:59:54.913Z,101784.28
2022-12-17T14:02:32.817Z,101788.63
2022-12-17T14:05:07.408Z,101789.47
2022-12-17T14:07:39.090Z,101789.41
2022-12-17T14:10:16.379Z,101778.13
2022-12-17T14:12:46.971Z,101763.19
2022-12-17T14:15:25.740Z,101781.56
2022-12-17T14:17:54.175Z,101771.94
2022-12-17T14:20:25.771Z,101766.75
2022-12-17T14:23:00.659Z,101764.97
2022-12-17T14:25:31.130Z,101758.88
2022-12-17T14:28:03.875Z,101751.91
2022-12-17T14:30:33.287Z,101759.72
2022-12-17T14:33:00.081Z,101757.97
2022-12-17T14:35:29.897Z,101760.50
2022-12-17T14:37:57.385Z,101770.88
2022-12-17T14:40:25.379Z,101766.47
2022-12-17T14:42:57.646Z,101769.03
2022-12-17T14:45:27.102Z,101781.09
2022-12-17T14:47:56.942Z,101779.28
2022-12-17T14:50:33.871Z,101790.53
2022-12-17T14:53:03.434Z,101783.47
2022-12-17T14:55:31.977Z,101788.63
2022-12-17T14:58:27.829Z,101783.41
2022-12-17T15:01:11.196Z,101785.06
2022-12-17T15:03:41.086Z,101782.41
2022-12-17T15:06:10.438Z,101778.88
2022-12-17T15:08:41.657Z,101770.16
2022-12-17T15:11:10.399Z,101776.16
2022-12-17T15:13:37.074Z,101767.41
2022-12-17T15:16:03.977Z,101768.22
2022-12-17T15:18:30.659Z,101762.91
2022-12-17T15:20:57.482Z,101762.03
2022-12-17T15:23:25.261Z,101773.22
2022-12-17T15:25:54.357Z,101773.97
2022-12-17T15:28:22.187Z,101792.09
2022-12-17T15:30:49.873Z,101795.50
2022-12-17T15:33:16.986Z,101787.63
2022-12-17T15:35:43.807Z,101776.31
2022-12-17T15:38:11.750Z,101777.16
2022-12-17T15:40:39.102Z,101784.06
2022-12-17T15:43:13.066Z,101780.53
2022-12-17T15:45:47.628Z,101783.13
2022-12-17T15:48:25.488Z,101759.41
2022-12-17T15:50:52.083Z,101784.81
2022-12-17T15:53:25.342Z,101797.72
2022-12-17T15:56:00.298Z,101801.16
2022-12-17T15:58:27.382Z,101795.91
2022-12-17T16:00:54.056Z,101794.06
2022-12-17T16:03:21.902Z,101792.31
2022-12-17T16:05:48.771Z,101798.25
2022-12-17T16:08:15.726Z,101797.38
2022-12-17T16:10:42.442Z,101798.16
2022-12-17T16:13:09.045Z,101804.19
2022-12-17T16:15:36.285Z,101789.41
2022-12-17T16:18:03.217Z,101788.59
2022-12-17T16:20:30.038Z,101782.47
2022-12-17T16:22:56.771Z,101792.81
2022-12-17T16:25:23.662Z,101793.69
2022-12-17T16:27:50.279Z,101796.31
2022-12-17T16:30:17.115Z,101797.94
2022-12-17T16:32:44.685Z,101800.44
2022-12-17T16:35:11.909Z,101805.53
2022-12-17T16:37:38.566Z,101806.38
2022-12-17T16:40:05.921Z,101816.78
2022-12-17T16:42:32.615Z,101815.03
2022-12-17T16:44:59.495Z,101810.59
2022-12-17T16:47:26.178Z,101817.53
2022-12-17T16:49:52.855Z,101811.44
2022-12-17T16:52:19.593Z,101814.06
2022-12-17T16:54:46.270Z,101804.53
2022-12-17T16:57:15.978Z,101807.84
2022-12-17T16:59:42.979Z,101814.81
2022-12-17T17:02:14.035Z,101809.50
2022-12-17T17:04:40.937Z,101800.81
2022-12-17T17:07:10.493Z,101811.19
2022-12-17T17:09:37.944Z,101821.59
2022-12-17T17:12:05.348Z,101815.34
2022-12-17T17:14:32.023Z,101823.13
2022-12-17T17:17:05.616Z,101826.50
2022-12-17T17:19:32.525Z,101828.09
2022-12-17T17:21:59.319Z,101839.34
2022-12-17T17:24:35.786Z,101844.56
2022-12-17T17:27:02.771Z,101849.00
2022-12-17T17:29:29.679Z,101849.06
2022-12-17T17:32:13.413Z,101842.25
2022-12-17T17:34:40.880Z,101847.50
2022-12-17T17:37:07.671Z,101851.09
2022-12-17T17:39:34.701Z,101854.63
2022-12-17T17:42:01.802Z,101856.44
2022-12-17T17:44:32.283Z,101859.94
2022-12-17T17:46:59.151Z,101860.03
2022-12-17T17:49:31.915Z,101854.88
2022-12-17T17:52:14.129Z,101858.44
2022-12-17T17:54:41.067Z,101851.63
2022-12-17T17:57:09.084Z,101843.84
2022-12-17T17:59:35.985Z,101846.53
2022-12-17T18:02:09.733Z,101833.56
2022-12-17T18:04:36.564Z,101839.75
2022-12-17T18:09:54.534Z,101837.13
2022-12-17T18:12:40.438Z,101832.91
2022-12-17T18:15:16.849Z,101836.50
2022-12-17T18:17:53.956Z,101834.69
2022-12-17T18:20:22.028Z,101830.19
2022-12-17T18:22:53.566Z,101834.78
2022-12-17T18:25:20.984Z,101848.00
2022-12-17T18:27:47.912Z,101845.47
2022-12-17T18:30:16.574Z,101839.44
2022-12-17T18:32:43.335Z,101830.84
2022-12-17T18:35:10.181Z,101843.00
2022-12-17T18:37:40.318Z,101840.44
2022-12-17T18:40:08.358Z,101842.22
2022-12-17T18:43:14.251Z,101848.31
2022-12-17T18:45:42.113Z,101849.19
2022-12-17T18:48:13.667Z,101853.63
2022-12-17T18:50:42.717Z,101852.78
2022-12-17T18:53:09.350Z,101856.31
2022-12-17T18:55:40.685Z,101859.78
2022-12-17T18:58:09.155Z,101859.91
2022-12-17T19:00:38.092Z,101859.91
2022-12-17T19:03:06.041Z,101848.66
2022-12-17T19:05:33.077Z,101847.81
2022-12-17T19:07:59.777Z,101850.41
2022-12-17T19:10:26.452Z,101853.88
2022-12-17T19:12:53.119Z,101863.50
2022-12-17T19:15:19.786Z,101857.47
2022-12-17T19:17:50.852Z,101864.50
2022-12-17T19:20:17.902Z,101872.34
2022-12-17T19:22:44.506Z,101863.59
2022-12-17T19:25:11.371Z,101867.16
2022-12-17T19:27:38.059Z,101864.59
2022-12-17T19:30:05.399Z,101857.72
2022-12-17T19:32:32.250Z,101861.13
2022-12-17T19:34:58.908Z,101862.03
2022-12-17T19:37:25.567Z,101857.72
2022-12-17T19:39:52.161Z,101869.00
2022-12-17T19:42:25.242Z,101860.38
2022-12-17T19:44:54.543Z,101855.22
2022-12-17T19:47:23.633Z,101849.97
2022-12-17T19:49:50.399Z,101849.97
2022-12-17T19:52:17.107Z,101853.50
2022-12-17T19:54:43.767Z,101863.91
2022-12-17T19:57:10.508Z,101862.22
2022-12-17T19:59:38.293Z,101864.91
2022-12-17T20:02:07.537Z,101873.66
2022-12-17T20:04:34.374Z,101876.28
2022-12-17T20:07:01.173Z,101876.28
2022-12-17T20:09:27.891Z,101872.81
2022-12-17T20:11:54.666Z,101877.16
2022-12-17T20:14:26.458Z,101884.06
2022-12-17T20:16:59.621Z,101877.16
2022-12-17T20:19:31.165Z,101885.00
2022-12-17T20:22:03.014Z,101873.78
2022-12-17T20:24:32.010Z,101879.78
2022-12-17T20:26:59.591Z,101867.63
2022-12-17T20:29:26.290Z,101871.94
2022-12-17T20:31:57.303Z,101864.06
2022-12-17T20:34:25.015Z,101871.88
2022-12-17T20:36:52.354Z,101879.75
2022-12-17T20:39:25.980Z,101875.41
2022-12-17T20:41:58.372Z,101876.28
2022-12-17T20:44:25.418Z,101883.22
2022-12-17T20:46:52.335Z,101879.75
2022-12-17T20:49:25.326Z,101874.56
2022-12-17T20:51:52.021Z,101870.22
2022-12-17T20:54:18.850Z,101880.63
2022-12-17T20:56:45.720Z,101878.03
2022-12-17T20:59:16.082Z,101874.59
2022-12-17T21:01:45.092Z,101860.75
2022-12-17T21:04:14.055Z,101858.16
2022-12-17T21:06:45.998Z,101879.06
2022-12-17T21:09:17.129Z,101870.41
2022-12-17T21:11:44.011Z,101874.84
2022-12-17T21:14:13.792Z,101870.56
2022-12-17T21:16:41.442Z,101874.88
2022-12-17T21:19:12.679Z,101871.44
2022-12-17T21:21:39.838Z,101871.50
2022-12-17T21:24:08.412Z,101861.97
2022-12-17T21:26:37.606Z,101866.28
2022-12-17T21:29:06.213Z,101885.47
2022-12-17T21:31:34.221Z,101885.59
2022-12-17T21:34:06.055Z,101882.09
2022-12-17T21:36:34.127Z,101887.34
2022-12-17T21:39:01.547Z,101880.38
2022-12-17T21:41:38.482Z,101889.97
2022-12-17T21:44:11.207Z,101901.28
2022-12-17T21:46:38.621Z,101901.31
2022-12-17T21:49:09.236Z,101892.63
2022-12-17T21:51:36.415Z,101897.00
2022-12-17T21:54:08.156Z,101904.81
2022-12-17T21:56:38.743Z,101895.28
2022-12-17T21:59:08.339Z,101905.69
2022-12-17T22:01:35.057Z,101901.38
2022-12-17T22:04:04.445Z,101902.28
2022-12-17T22:06:36.062Z,101904.03
2022-12-17T22:09:16.866Z,101898.78
2022-12-17T22:12:17.870Z,101908.34
2022-12-17T22:14:45.011Z,101904.91
2022-12-17T22:17:11.705Z,101904.03
2022-12-17T22:19:38.551Z,101905.00
2022-12-17T22:22:08.628Z,101895.44
2022-12-17T22:24:36.726Z,101909.38
2022-12-17T22:27:04.253Z,101916.38
2022-12-17T22:29:54.332Z,101911.19
2022-12-17T22:32:39.831Z,101905.94
2022-12-17T22:36:45.481Z,101906.03
2022-12-17T22:39:51.478Z,101902.59
2022-12-17T22:44:31.159Z,101902.63
2022-12-17T22:44:44.078Z,101910.50
2022-12-17T22:46:17.508Z,101907.03
2022-12-17T22:48:44.922Z,101913.19
2022-12-17T22:51:24.575Z,101914.16
2022-12-17T22:54:04.894Z,101909.88
2022-12-17T22:56:51.108Z,101916.88
2022-12-17T22:59:19.858Z,101923.88
2022-12-17T23:01:46.843Z,101923.94
2022-12-17T23:04:15.916Z,101917.91
2022-12-17T23:06:49.039Z,101915.38
2022-12-17T23:09:19.619Z,101910.25
2022-12-17T23:11:48.307Z,101898.13
2022-12-17T23:14:21.271Z,101911.22
2022-12-17T23:16:53.185Z,101904.38
2022-12-17T23:19:23.236Z,101893.91
2022-12-17T23:21:49.842Z,101891.38
2022-12-17T23:24:25.188Z,101887.97
2022-12-17T23:26:51.832Z,101887.97
2022-12-17T23:29:19.773Z,101896.69
2022-12-17T23:31:47.360Z,101894.16
2022-12-17T23:34:14.327Z,101895.94
2022-12-17T23:36:41.077Z,101905.53
2022-12-17T23:39:07.811Z,101896.00
2022-12-17T23:41:34.854Z,101892.59
2022-12-17T23:44:01.573Z,101889.13
2022-12-17T23:46:29.561Z,101890.91
2022-12-17T23:48:58.874Z,101875.25
2022-12-17T23:51:26.403Z,101886.63
2022-12-17T23:53:53.295Z,101884.94
2022-12-17T23:56:22.731Z,101889.31
2022-12-17T23:58:57.262Z,101891.94
